Conception, Missouri
Current Conditions -  °F | °C
As of 7:53 PM on Friday 28 Nov 2014 (Local Time) from KSTJ Reporting Station
Clear Clear  
Wind Chill: 45°   Ceiling: Unl
Heat Index: 49°   Visibility: 10mi
Dew Point: 35°   Wind: 9mph
Humidity: 59%   Direction: 190°S
Pressure: 29.73"   Gusts: NA
Location:  40.24°N, 94.69°W
Report Text: KSTJ 290153Z AUTO 19008KT 10SM CLR 09/02 A2973 RMK AO2 SLP071 T00940017
Loading
Personal Weather Stations






























Interactive Weather Map New forecast layout! Learn more

10-Day Weather Forecast

Advertisements
Track Severe Weather on mobile